AUA644 LKPR-LOWW
Flight info
| Callsign | AUA644 |
|---|---|
| Flight time | 0h 36m |
| Altitude | 19000 |
| Route | VOZ DCT LANUX LANUX7W |
| Aircraft | A320/M-SDE3FGHIRWY/LB1 |
Departure
| Time | 2026-04-22 17:38 |
|---|---|
| Airport | Václav Havel Airport Prague (LKPR) |
Arrival
| Time | 2026-04-22 18:14 |
|---|---|
| Airport | Vienna International Airport (LOWW) |
| Time | Latitude | Longitude | Altitude | Speed | Heading |
|---|---|---|---|---|---|
| 2026-04-22 16:34 | 50.10671 | 14.26418 | 1175 ft | 0 kts | 214° |
| 2026-04-22 17:28 | 50.10674 | 14.26421 | 1176 ft | 2 kts | 212° |
| 2026-04-22 17:28 | 50.10688 | 14.26435 | 1171 ft | 2 kts | 215° |
| 2026-04-22 17:28 | 50.10701 | 14.26451 | 1171 ft | 2 kts | 223° |
| 2026-04-22 17:28 | 50.10711 | 14.26471 | 1172 ft | 2 kts | 270° |
| 2026-04-22 17:29 | 50.10708 | 14.26496 | 1172 ft | 2 kts | 301° |
| 2026-04-22 17:29 | 50.10704 | 14.26505 | 1171 ft | 0 kts | 305° |
| 2026-04-22 17:29 | 50.10704 | 14.26504 | 1171 ft | 0 kts | 305° |
| 2026-04-22 17:29 | 50.10704 | 14.26505 | 1171 ft | 0 kts | 305° |
| 2026-04-22 17:31 | 50.10705 | 14.26504 | 1171 ft | 1 kts | 305° |
| 2026-04-22 17:31 | 50.10733 | 14.26440 | 1175 ft | 12 kts | 305° |
| 2026-04-22 17:31 | 50.10789 | 14.26315 | 1174 ft | 11 kts | 304° |
| 2026-04-22 17:32 | 50.10768 | 14.26215 | 1175 ft | 11 kts | 214° |
| 2026-04-22 17:32 | 50.10707 | 14.26149 | 1172 ft | 10 kts | 214° |
| 2026-04-22 17:32 | 50.10650 | 14.26090 | 1174 ft | 12 kts | 213° |
| 2026-04-22 17:32 | 50.10562 | 14.26001 | 1175 ft | 17 kts | 213° |
| 2026-04-22 17:33 | 50.10500 | 14.25982 | 1172 ft | 13 kts | 149° |
| 2026-04-22 17:33 | 50.10431 | 14.26121 | 1172 ft | 13 kts | 126° |
| 2026-04-22 17:33 | 50.10366 | 14.26255 | 1176 ft | 18 kts | 126° |
| 2026-04-22 17:33 | 50.10296 | 14.26400 | 1176 ft | 16 kts | 127° |
| 2026-04-22 17:34 | 50.10233 | 14.26530 | 1172 ft | 14 kts | 127° |
| 2026-04-22 17:34 | 50.10168 | 14.26666 | 1174 ft | 19 kts | 127° |
| 2026-04-22 17:34 | 50.10074 | 14.26858 | 1173 ft | 25 kts | 127° |
| 2026-04-22 17:34 | 50.09966 | 14.27083 | 1176 ft | 27 kts | 127° |
| 2026-04-22 17:35 | 50.09851 | 14.27316 | 1171 ft | 27 kts | 133° |
| 2026-04-22 17:35 | 50.09741 | 14.27485 | 1176 ft | 16 kts | 135° |
| 2026-04-22 17:35 | 50.09664 | 14.27604 | 1174 ft | 15 kts | 135° |
| 2026-04-22 17:35 | 50.09572 | 14.27745 | 1176 ft | 23 kts | 136° |
| 2026-04-22 17:36 | 50.09463 | 14.27912 | 1175 ft | 21 kts | 135° |
| 2026-04-22 17:36 | 50.09363 | 14.28066 | 1175 ft | 19 kts | 135° |
| 2026-04-22 17:36 | 50.09271 | 14.28205 | 1174 ft | 17 kts | 135° |
| 2026-04-22 17:36 | 50.09188 | 14.28285 | 1176 ft | 13 kts | 178° |
| 2026-04-22 17:37 | 50.09118 | 14.28226 | 1176 ft | 15 kts | 225° |
| 2026-04-22 17:37 | 50.09085 | 14.28082 | 1176 ft | 11 kts | 294° |
| 2026-04-22 17:37 | 50.09186 | 14.27872 | 1174 ft | 53 kts | 307° |
| 2026-04-22 17:37 | 50.09552 | 14.27125 | 1172 ft | 117 kts | 306° |
| 2026-04-22 17:38 | 50.10150 | 14.25885 | 1263 ft | 159 kts | 310° |
| 2026-04-22 17:38 | 50.10800 | 14.24549 | 2054 ft | 154 kts | 309° |
| 2026-04-22 17:38 | 50.11437 | 14.23212 | 2783 ft | 154 kts | 310° |
| 2026-04-22 17:38 | 50.12101 | 14.21825 | 3296 ft | 165 kts | 310° |
| 2026-04-22 17:39 | 50.12825 | 14.20335 | 3760 ft | 179 kts | 311° |
| 2026-04-22 17:39 | 50.13608 | 14.18745 | 4216 ft | 192 kts | 311° |
| 2026-04-22 17:39 | 50.15318 | 14.15180 | 5242 ft | 215 kts | 307° |
| 2026-04-22 17:40 | 50.15791 | 14.12980 | 5998 ft | 221 kts | 276° |
| 2026-04-22 17:40 | 50.15477 | 14.10541 | 6392 ft | 246 kts | 241° |
| 2026-04-22 17:40 | 50.14195 | 14.08703 | 6949 ft | 261 kts | 202° |
| 2026-04-22 17:40 | 50.12394 | 14.08358 | 7583 ft | 269 kts | 167° |
| 2026-04-22 17:41 | 50.10679 | 14.09569 | 8259 ft | 274 kts | 143° |
| 2026-04-22 17:41 | 50.09180 | 14.11421 | 9069 ft | 279 kts | 135° |
| 2026-04-22 17:41 | 50.07721 | 14.13507 | 9762 ft | 289 kts | 133° |
| 2026-04-22 17:41 | 50.06256 | 14.15707 | 10513 ft | 297 kts | 133° |
| 2026-04-22 17:42 | 50.04710 | 14.18026 | 10812 ft | 321 kts | 133° |
| 2026-04-22 17:42 | 50.03041 | 14.20460 | 11336 ft | 334 kts | 134° |
| 2026-04-22 17:42 | 50.01901 | 14.22079 | 11821 ft | 337 kts | 135° |
| 2026-04-22 17:42 | 49.99539 | 14.25350 | 12876 ft | 343 kts | 135° |
| 2026-04-22 17:43 | 49.97759 | 14.27762 | 13667 ft | 346 kts | 135° |
| 2026-04-22 17:43 | 49.95932 | 14.30222 | 14393 ft | 349 kts | 135° |
| 2026-04-22 17:43 | 49.94088 | 14.32704 | 15096 ft | 352 kts | 135° |
| 2026-04-22 17:43 | 49.92234 | 14.35205 | 15821 ft | 354 kts | 135° |
| 2026-04-22 17:44 | 49.90369 | 14.37729 | 16514 ft | 357 kts | 135° |
| 2026-04-22 17:44 | 49.88494 | 14.40267 | 17213 ft | 359 kts | 135° |
| 2026-04-22 17:44 | 49.86603 | 14.42824 | 17890 ft | 362 kts | 135° |
| 2026-04-22 17:44 | 49.84695 | 14.45401 | 18550 ft | 365 kts | 135° |
| 2026-04-22 17:45 | 49.82773 | 14.47999 | 19065 ft | 368 kts | 135° |
| 2026-04-22 17:45 | 49.80845 | 14.50601 | 19214 ft | 368 kts | 135° |
| 2026-04-22 17:45 | 49.78993 | 14.53218 | 19255 ft | 353 kts | 132° |
| 2026-04-22 17:45 | 49.77273 | 14.55865 | 19258 ft | 346 kts | 129° |
| 2026-04-22 17:46 | 49.75614 | 14.58552 | 19259 ft | 345 kts | 129° |
| 2026-04-22 17:46 | 49.73974 | 14.61253 | 19252 ft | 344 kts | 129° |
| 2026-04-22 17:46 | 49.72331 | 14.63948 | 19256 ft | 345 kts | 129° |
| 2026-04-22 17:46 | 49.70677 | 14.66623 | 19258 ft | 345 kts | 129° |
| 2026-04-22 17:47 | 49.69029 | 14.69262 | 19256 ft | 345 kts | 129° |
| 2026-04-22 17:47 | 49.67341 | 14.71940 | 19251 ft | 345 kts | 130° |
| 2026-04-22 17:47 | 49.65671 | 14.74574 | 19254 ft | 345 kts | 130° |
| 2026-04-22 17:47 | 49.63986 | 14.77223 | 19253 ft | 346 kts | 130° |
| 2026-04-22 17:48 | 49.62870 | 14.78975 | 19258 ft | 346 kts | 130° |
| 2026-04-22 17:48 | 49.60618 | 14.82515 | 19256 ft | 346 kts | 130° |
| 2026-04-22 17:48 | 49.58933 | 14.85169 | 19257 ft | 346 kts | 130° |
| 2026-04-22 17:48 | 49.57248 | 14.87821 | 19261 ft | 346 kts | 130° |
| 2026-04-22 17:49 | 49.55560 | 14.90475 | 19260 ft | 351 kts | 130° |
| 2026-04-22 17:49 | 49.53798 | 14.93254 | 19251 ft | 373 kts | 130° |
| 2026-04-22 17:49 | 49.51973 | 14.96128 | 19252 ft | 384 kts | 130° |
| 2026-04-22 17:49 | 49.50088 | 14.99077 | 19250 ft | 386 kts | 130° |
| 2026-04-22 17:50 | 49.48200 | 15.02017 | 19255 ft | 387 kts | 130° |
| 2026-04-22 17:50 | 49.46305 | 15.04961 | 19249 ft | 387 kts | 130° |
| 2026-04-22 17:50 | 49.44395 | 15.07931 | 19252 ft | 397 kts | 130° |
| 2026-04-22 17:50 | 49.42440 | 15.10979 | 19250 ft | 403 kts | 130° |
| 2026-04-22 17:51 | 49.40477 | 15.14029 | 19247 ft | 405 kts | 130° |
| 2026-04-22 17:51 | 49.38484 | 15.17118 | 19247 ft | 405 kts | 130° |
| 2026-04-22 17:51 | 49.36494 | 15.20198 | 19248 ft | 406 kts | 130° |
| 2026-04-22 17:51 | 49.34521 | 15.23250 | 19247 ft | 405 kts | 130° |
| 2026-04-22 17:52 | 49.32528 | 15.26330 | 19248 ft | 406 kts | 130° |
| 2026-04-22 17:52 | 49.30539 | 15.29405 | 19245 ft | 410 kts | 130° |
| 2026-04-22 17:52 | 49.28503 | 15.32556 | 19245 ft | 420 kts | 130° |
| 2026-04-22 17:52 | 49.26438 | 15.35743 | 19246 ft | 422 kts | 131° |
| 2026-04-22 17:53 | 49.24363 | 15.38940 | 19245 ft | 423 kts | 131° |
| 2026-04-22 17:53 | 49.22289 | 15.42130 | 19238 ft | 423 kts | 131° |
| 2026-04-22 17:53 | 49.20208 | 15.45322 | 19243 ft | 423 kts | 131° |
| 2026-04-22 17:53 | 49.18128 | 15.48508 | 19244 ft | 423 kts | 131° |
| 2026-04-22 17:54 | 49.16048 | 15.51690 | 19242 ft | 423 kts | 131° |
| 2026-04-22 17:54 | 49.13968 | 15.54872 | 19236 ft | 423 kts | 131° |
| 2026-04-22 17:54 | 49.11889 | 15.58055 | 19237 ft | 423 kts | 131° |
| 2026-04-22 17:54 | 49.09821 | 15.61213 | 19237 ft | 424 kts | 131° |
| 2026-04-22 17:55 | 49.08435 | 15.63327 | 19240 ft | 424 kts | 131° |
| 2026-04-22 17:55 | 49.05621 | 15.67617 | 19230 ft | 431 kts | 131° |
| 2026-04-22 17:55 | 49.03499 | 15.70848 | 19233 ft | 432 kts | 131° |
| 2026-04-22 17:55 | 49.01369 | 15.74085 | 19231 ft | 433 kts | 131° |
| 2026-04-22 17:56 | 48.99954 | 15.76230 | 19227 ft | 433 kts | 131° |
| 2026-04-22 17:56 | 48.97823 | 15.79463 | 19224 ft | 433 kts | 131° |
| 2026-04-22 17:56 | 48.94993 | 15.83752 | 19228 ft | 433 kts | 131° |
| 2026-04-22 17:56 | 48.92851 | 15.86984 | 19226 ft | 433 kts | 131° |
| 2026-04-22 17:57 | 48.91406 | 15.89159 | 19226 ft | 433 kts | 131° |
| 2026-04-22 17:57 | 48.88570 | 15.93423 | 19222 ft | 433 kts | 131° |
| 2026-04-22 17:57 | 48.87148 | 15.95562 | 19226 ft | 433 kts | 131° |
| 2026-04-22 17:57 | 48.85000 | 15.98790 | 19228 ft | 434 kts | 131° |
| 2026-04-22 17:58 | 48.82857 | 16.02012 | 19226 ft | 434 kts | 131° |
| 2026-04-22 17:58 | 48.80714 | 16.05235 | 19227 ft | 434 kts | 131° |
| 2026-04-22 17:58 | 48.78397 | 16.08193 | 19215 ft | 439 kts | 143° |
| 2026-04-22 17:58 | 48.75844 | 16.10634 | 19013 ft | 429 kts | 144° |
| 2026-04-22 17:59 | 48.73324 | 16.13020 | 18724 ft | 425 kts | 144° |
| 2026-04-22 17:59 | 48.70823 | 16.15385 | 18418 ft | 423 kts | 144° |
| 2026-04-22 17:59 | 48.68327 | 16.17746 | 18071 ft | 422 kts | 144° |
| 2026-04-22 17:59 | 48.65850 | 16.20089 | 17664 ft | 419 kts | 144° |
| 2026-04-22 18:00 | 48.63377 | 16.22421 | 17261 ft | 417 kts | 144° |
| 2026-04-22 18:00 | 48.60922 | 16.24729 | 16848 ft | 415 kts | 144° |
| 2026-04-22 18:00 | 48.58475 | 16.27021 | 16451 ft | 411 kts | 144° |
| 2026-04-22 18:00 | 48.56068 | 16.29270 | 16063 ft | 403 kts | 144° |
| 2026-04-22 18:01 | 48.53708 | 16.31477 | 15679 ft | 395 kts | 144° |
| 2026-04-22 18:01 | 48.51396 | 16.33645 | 15299 ft | 390 kts | 144° |
| 2026-04-22 18:01 | 48.49135 | 16.35766 | 14930 ft | 384 kts | 144° |
| 2026-04-22 18:01 | 48.46855 | 16.37905 | 14556 ft | 378 kts | 144° |
| 2026-04-22 18:02 | 48.44641 | 16.39980 | 14188 ft | 372 kts | 145° |
| 2026-04-22 18:02 | 48.42494 | 16.41988 | 13810 ft | 366 kts | 145° |
| 2026-04-22 18:02 | 48.40348 | 16.43991 | 13399 ft | 361 kts | 145° |
| 2026-04-22 18:02 | 48.38216 | 16.45979 | 12993 ft | 359 kts | 145° |
| 2026-04-22 18:03 | 48.36107 | 16.47942 | 12539 ft | 355 kts | 145° |
| 2026-04-22 18:03 | 48.34022 | 16.49880 | 12058 ft | 349 kts | 146° |
| 2026-04-22 18:03 | 48.31982 | 16.51773 | 11598 ft | 340 kts | 146° |
| 2026-04-22 18:03 | 48.29991 | 16.53616 | 11143 ft | 333 kts | 146° |
| 2026-04-22 18:04 | 48.28032 | 16.55426 | 10692 ft | 327 kts | 146° |
| 2026-04-22 18:04 | 48.26105 | 16.57208 | 10243 ft | 325 kts | 146° |
| 2026-04-22 18:04 | 48.24186 | 16.58983 | 9771 ft | 324 kts | 146° |
| 2026-04-22 18:04 | 48.22264 | 16.60763 | 9186 ft | 326 kts | 146° |
| 2026-04-22 18:05 | 48.20334 | 16.62551 | 8603 ft | 327 kts | 146° |
| 2026-04-22 18:05 | 48.18394 | 16.64342 | 8026 ft | 328 kts | 146° |
| 2026-04-22 18:05 | 48.16467 | 16.66116 | 7467 ft | 319 kts | 146° |
| 2026-04-22 18:05 | 48.14611 | 16.67826 | 6902 ft | 308 kts | 146° |
| 2026-04-22 18:06 | 48.12819 | 16.69476 | 6353 ft | 298 kts | 147° |
| 2026-04-22 18:06 | 48.11004 | 16.70898 | 5770 ft | 291 kts | 155° |
| 2026-04-22 18:06 | 48.09123 | 16.71918 | 5205 ft | 286 kts | 163° |
| 2026-04-22 18:06 | 48.07210 | 16.72709 | 4639 ft | 286 kts | 163° |
| 2026-04-22 18:07 | 48.05296 | 16.73502 | 4096 ft | 283 kts | 163° |
| 2026-04-22 18:07 | 48.03412 | 16.74286 | 3601 ft | 279 kts | 163° |
| 2026-04-22 18:07 | 48.01577 | 16.75048 | 3160 ft | 268 kts | 163° |
| 2026-04-22 18:07 | 47.99828 | 16.75771 | 3003 ft | 254 kts | 163° |
| 2026-04-22 18:08 | 47.98153 | 16.76463 | 3006 ft | 249 kts | 163° |
| 2026-04-22 18:08 | 47.96452 | 16.76842 | 3010 ft | 249 kts | 187° |
| 2026-04-22 18:08 | 47.94856 | 16.75981 | 3004 ft | 243 kts | 220° |
| 2026-04-22 18:08 | 47.93829 | 16.74118 | 3007 ft | 224 kts | 249° |
| 2026-04-22 18:09 | 47.93250 | 16.72024 | 3008 ft | 215 kts | 258° |
| 2026-04-22 18:09 | 47.93143 | 16.69890 | 3023 ft | 204 kts | 284° |
| 2026-04-22 18:09 | 47.93539 | 16.67905 | 3014 ft | 198 kts | 301° |
| 2026-04-22 18:09 | 47.94285 | 16.66263 | 3016 ft | 192 kts | 317° |
| 2026-04-22 18:10 | 47.95326 | 16.65028 | 3009 ft | 184 kts | 333° |
| 2026-04-22 18:10 | 47.96459 | 16.64360 | 3005 ft | 174 kts | 346° |
| 2026-04-22 18:10 | 47.97605 | 16.63880 | 2935 ft | 170 kts | 345° |
| 2026-04-22 18:10 | 47.98734 | 16.63404 | 2705 ft | 166 kts | 346° |
| 2026-04-22 18:11 | 47.99830 | 16.62942 | 2485 ft | 161 kts | 346° |
| 2026-04-22 18:11 | 48.00882 | 16.62499 | 2263 ft | 151 kts | 345° |
| 2026-04-22 18:11 | 48.01869 | 16.62083 | 2098 ft | 141 kts | 345° |
| 2026-04-22 18:11 | 48.02784 | 16.61698 | 1902 ft | 133 kts | 346° |
| 2026-04-22 18:12 | 48.03662 | 16.61328 | 1713 ft | 130 kts | 346° |
| 2026-04-22 18:12 | 48.04533 | 16.60961 | 1526 ft | 131 kts | 345° |
| 2026-04-22 18:12 | 48.05110 | 16.60717 | 1400 ft | 129 kts | 345° |
| 2026-04-22 18:12 | 48.06278 | 16.60225 | 1163 ft | 130 kts | 345° |
| 2026-04-22 18:13 | 48.07147 | 16.59858 | 994 ft | 130 kts | 343° |
| 2026-04-22 18:13 | 48.08015 | 16.59492 | 812 ft | 128 kts | 344° |
| 2026-04-22 18:13 | 48.08871 | 16.59133 | 664 ft | 127 kts | 344° |
| 2026-04-22 18:13 | 48.09648 | 16.58803 | 618 ft | 99 kts | 343° |
| 2026-04-22 18:14 | 48.10159 | 16.58588 | 611 ft | 62 kts | 344° |
| 2026-04-22 18:14 | 48.10540 | 16.58426 | 619 ft | 52 kts | 344° |
| 2026-04-22 18:14 | 48.10755 | 16.58242 | 616 ft | 32 kts | 316° |
| 2026-04-22 18:14 | 48.10877 | 16.58057 | 614 ft | 12 kts | 314° |
| 2026-04-22 18:15 | 48.10885 | 16.58044 | 614 ft | 0 kts | 314° |
| 2026-04-22 18:15 | 48.10906 | 16.58011 | 609 ft | 11 kts | 314° |
| 2026-04-22 18:15 | 48.11017 | 16.57944 | 617 ft | 23 kts | 344° |
| 2026-04-22 18:15 | 48.11177 | 16.57878 | 617 ft | 23 kts | 345° |
| 2026-04-22 18:16 | 48.11333 | 16.57811 | 618 ft | 24 kts | 344° |
| 2026-04-22 18:16 | 48.11497 | 16.57743 | 615 ft | 25 kts | 345° |
| 2026-04-22 18:16 | 48.11664 | 16.57671 | 611 ft | 25 kts | 344° |
| 2026-04-22 18:16 | 48.11806 | 16.57612 | 609 ft | 15 kts | 342° |
| 2026-04-22 18:17 | 48.11822 | 16.57474 | 609 ft | 16 kts | 255° |
| 2026-04-22 18:17 | 48.11825 | 16.57307 | 618 ft | 18 kts | 295° |
| 2026-04-22 18:17 | 48.11881 | 16.57134 | 614 ft | 19 kts | 296° |
| 2026-04-22 18:17 | 48.11943 | 16.56943 | 616 ft | 20 kts | 296° |
| 2026-04-22 18:18 | 48.11991 | 16.56797 | 620 ft | 12 kts | 296° |
| 2026-04-22 18:18 | 48.11981 | 16.56695 | 615 ft | 8 kts | 216° |
| 2026-04-22 18:18 | 48.11938 | 16.56663 | 609 ft | 6 kts | 206° |
| 2026-04-22 18:18 | 48.11930 | 16.56657 | 618 ft | 0 kts | 206° |